sensor_id;sensor_type;location;lat;lon;timestamp;pressure;altitude;pressure_sealevel;temperature;humidity
37892;BME280;45797;47.466;9.486;2023-05-29T00:01:14;95690.66;;;16.65;46.82
37892;BME280;45797;47.466;9.486;2023-05-29T00:06:24;95689.47;;;16.60;46.62
37892;BME280;45797;47.466;9.486;2023-05-29T00:11:49;95693.00;;;16.50;46.85
37892;BME280;45797;47.466;9.486;2023-05-29T00:16:52;95687.72;;;16.50;46.85
37892;BME280;45797;47.466;9.486;2023-05-29T00:21:53;95685.66;;;16.44;47.31
37892;BME280;45797;47.466;9.486;2023-05-29T00:26:54;95692.38;;;16.39;47.25
37892;BME280;45797;47.466;9.486;2023-05-29T00:31:54;95696.47;;;16.33;47.44
37892;BME280;45797;47.466;9.486;2023-05-29T00:37:02;95686.19;;;16.30;47.53
37892;BME280;45797;47.466;9.486;2023-05-29T00:42:03;95692.06;;;16.24;47.90
37892;BME280;45797;47.466;9.486;2023-05-29T00:47:13;95688.03;;;16.20;47.91
37892;BME280;45797;47.466;9.486;2023-05-29T00:52:16;95685.69;;;16.17;48.13
37892;BME280;45797;47.466;9.486;2023-05-29T00:57:25;95685.59;;;16.09;48.06
37892;BME280;45797;47.466;9.486;2023-05-29T01:02:27;95683.56;;;16.03;48.19
37892;BME280;45797;47.466;9.486;2023-05-29T01:07:29;95689.25;;;15.98;48.73
37892;BME280;45797;47.466;9.486;2023-05-29T01:13:26;95699.72;;;15.90;48.81
37892;BME280;45797;47.466;9.486;2023-05-29T01:23:52;95696.69;;;15.85;48.58
37892;BME280;45797;47.466;9.486;2023-05-29T01:28:57;95704.47;;;15.86;49.07
37892;BME280;45797;47.466;9.486;2023-05-29T01:34:02;95701.31;;;15.83;49.00
37892;BME280;45797;47.466;9.486;2023-05-29T01:39:04;95708.66;;;15.79;49.23
37892;BME280;45797;47.466;9.486;2023-05-29T01:44:07;95705.63;;;15.74;49.50
37892;BME280;45797;47.466;9.486;2023-05-29T01:49:14;95713.84;;;15.71;49.57
37892;BME280;45797;47.466;9.486;2023-05-29T01:54:22;95714.28;;;15.66;49.84
37892;BME280;45797;47.466;9.486;2023-05-29T01:59:25;95710.94;;;15.64;49.93
37892;BME280;45797;47.466;9.486;2023-05-29T02:04:27;95701.50;;;15.62;49.92
37892;BME280;45797;47.466;9.486;2023-05-29T02:09:29;95708.69;;;15.60;49.91
37892;BME280;45797;47.466;9.486;2023-05-29T02:14:29;95703.97;;;15.54;50.24
37892;BME280;45797;47.466;9.486;2023-05-29T02:19:33;95701.34;;;15.54;50.50
37892;BME280;45797;47.466;9.486;2023-05-29T02:24:35;95694.00;;;15.48;50.76
37892;BME280;45797;47.466;9.486;2023-05-29T02:29:45;95707.91;;;15.40;50.22
37892;BME280;45797;47.466;9.486;2023-05-29T02:34:50;95704.75;;;15.36;50.79
37892;BME280;45797;47.466;9.486;2023-05-29T02:40:03;95695.88;;;15.28;51.03
37892;BME280;45797;47.466;9.486;2023-05-29T02:45:07;95701.56;;;15.23;51.02
37892;BME280;45797;47.466;9.486;2023-05-29T02:50:09;95695.88;;;15.18;51.15
37892;BME280;45797;47.466;9.486;2023-05-29T02:55:09;95696.72;;;15.09;51.66
37892;BME280;45797;47.466;9.486;2023-05-29T03:00:11;95696.03;;;15.07;51.76
37892;BME280;45797;47.466;9.486;2023-05-29T03:05:14;95698.94;;;15.04;51.63
37892;BME280;45797;47.466;9.486;2023-05-29T03:10:16;95698.53;;;14.99;51.65
37892;BME280;45797;47.466;9.486;2023-05-29T03:15:18;95707.44;;;14.98;51.67
37892;BME280;45797;47.466;9.486;2023-05-29T03:20:21;95704.50;;;14.91;52.06
37892;BME280;45797;47.466;9.486;2023-05-29T03:25:29;95700.22;;;14.90;52.14
37892;BME280;45797;47.466;9.486;2023-05-29T03:30:30;95697.00;;;14.86;52.34
37892;BME280;45797;47.466;9.486;2023-05-29T03:35:58;95708.81;;;14.82;51.95
37892;BME280;45797;47.466;9.486;2023-05-29T03:41:03;95700.75;;;14.84;52.19
37892;BME280;45797;47.466;9.486;2023-05-29T03:46:04;95702.00;;;14.80;52.64
37892;BME280;45797;47.466;9.486;2023-05-29T03:51:08;95709.09;;;14.79;52.98
37892;BME280;45797;47.466;9.486;2023-05-29T03:56:10;95713.66;;;14.77;52.88
37892;BME280;45797;47.466;9.486;2023-05-29T04:01:10;95715.06;;;14.81;53.01
37892;BME280;45797;47.466;9.486;2023-05-29T04:06:11;95726.00;;;14.86;52.58
37892;BME280;45797;47.466;9.486;2023-05-29T04:11:14;95723.25;;;14.98;52.42
37892;BME280;45797;47.466;9.486;2023-05-29T04:16:18;95739.06;;;15.07;52.52
37892;BME280;45797;47.466;9.486;2023-05-29T04:21:20;95741.00;;;15.15;52.57
37892;BME280;45797;47.466;9.486;2023-05-29T04:26:22;95737.66;;;15.23;52.91
37892;BME280;45797;47.466;9.486;2023-05-29T04:31:25;95744.88;;;15.30;52.56
37892;BME280;45797;47.466;9.486;2023-05-29T04:36:29;95749.03;;;15.42;52.36
37892;BME280;45797;47.466;9.486;2023-05-29T04:41:45;95749.56;;;15.56;52.40
37892;BME280;45797;47.466;9.486;2023-05-29T04:46:49;95755.56;;;15.67;51.98
37892;BME280;45797;47.466;9.486;2023-05-29T04:51:52;95754.13;;;15.83;52.12
37892;BME280;45797;47.466;9.486;2023-05-29T04:56:52;95757.28;;;15.96;51.82
37892;BME280;45797;47.466;9.486;2023-05-29T05:02:21;95766.41;;;16.11;51.67
37892;BME280;45797;47.466;9.486;2023-05-29T05:07:23;95767.72;;;16.25;51.46
37892;BME280;45797;47.466;9.486;2023-05-29T05:12:24;95772.81;;;16.36;51.57
37892;BME280;45797;47.466;9.486;2023-05-29T05:17:25;95768.22;;;16.38;51.72
37892;BME280;45797;47.466;9.486;2023-05-29T05:22:25;95783.81;;;16.41;51.59
37892;BME280;45797;47.466;9.486;2023-05-29T05:27:27;95777.63;;;16.50;51.82
37892;BME280;45797;47.466;9.486;2023-05-29T05:32:29;95775.00;;;16.50;51.86
37892;BME280;45797;47.466;9.486;2023-05-29T05:37:40;95775.41;;;16.46;52.01
37892;BME280;45797;47.466;9.486;2023-05-29T05:42:42;95780.44;;;16.49;52.41
37892;BME280;45797;47.466;9.486;2023-05-29T05:47:46;95776.66;;;16.51;52.49
37892;BME280;45797;47.466;9.486;2023-05-29T05:52:46;95784.34;;;16.45;52.62
37892;BME280;45797;47.466;9.486;2023-05-29T05:57:47;95788.78;;;16.44;53.26
37892;BME280;45797;47.466;9.486;2023-05-29T06:02:50;95782.31;;;16.56;52.35
37892;BME280;45797;47.466;9.486;2023-05-29T06:08:05;95787.00;;;16.72;52.60
37892;BME280;45797;47.466;9.486;2023-05-29T06:13:06;95788.91;;;16.80;52.69
37892;BME280;45797;47.466;9.486;2023-05-29T06:18:18;95786.03;;;16.91;52.29
37892;BME280;45797;47.466;9.486;2023-05-29T06:23:20;95793.16;;;17.08;52.15
37892;BME280;45797;47.466;9.486;2023-05-29T06:28:24;95789.00;;;17.24;52.04
37892;BME280;45797;47.466;9.486;2023-05-29T06:33:31;95790.44;;;17.36;51.79
37892;BME280;45797;47.466;9.486;2023-05-29T06:38:31;95794.28;;;17.41;52.19
37892;BME280;45797;47.466;9.486;2023-05-29T06:43:41;95791.94;;;17.56;51.76
37892;BME280;45797;47.466;9.486;2023-05-29T06:48:43;95790.31;;;17.81;51.17
37892;BME280;45797;47.466;9.486;2023-05-29T06:53:44;95798.94;;;18.01;51.47
37892;BME280;45797;47.466;9.486;2023-05-29T06:58:46;95796.63;;;18.06;51.26
37892;BME280;45797;47.466;9.486;2023-05-29T07:03:52;95804.13;;;18.11;51.22
37892;BME280;45797;47.466;9.486;2023-05-29T07:09:01;95808.09;;;18.15;51.43
37892;BME280;45797;47.466;9.486;2023-05-29T07:14:01;95812.00;;;18.28;51.12
37892;BME280;45797;47.466;9.486;2023-05-29T07:19:02;95809.13;;;18.48;50.98
37892;BME280;45797;47.466;9.486;2023-05-29T07:24:07;95813.06;;;18.70;50.93
37892;BME280;45797;47.466;9.486;2023-05-29T07:29:17;95813.13;;;18.86;50.66
37892;BME280;45797;47.466;9.486;2023-05-29T07:34:21;95817.34;;;19.05;50.83
37892;BME280;45797;47.466;9.486;2023-05-29T07:39:24;95819.34;;;19.19;50.62
37892;BME280;45797;47.466;9.486;2023-05-29T07:44:24;95811.72;;;19.32;50.75
37892;BME280;45797;47.466;9.486;2023-05-29T07:49:25;95819.69;;;19.32;50.46
37892;BME280;45797;47.466;9.486;2023-05-29T07:54:34;95817.38;;;19.29;50.52
37892;BME280;45797;47.466;9.486;2023-05-29T07:59:37;95817.72;;;19.34;50.67
37892;BME280;45797;47.466;9.486;2023-05-29T08:04:40;95818.56;;;19.43;50.25
37892;BME280;45797;47.466;9.486;2023-05-29T08:09:44;95805.59;;;19.48;50.11
37892;BME280;45797;47.466;9.486;2023-05-29T08:14:57;95802.28;;;19.54;49.92
37892;BME280;45797;47.466;9.486;2023-05-29T08:19:58;95811.97;;;19.63;49.90
37892;BME280;45797;47.466;9.486;2023-05-29T08:25:23;95804.00;;;19.72;49.95
37892;BME280;45797;47.466;9.486;2023-05-29T08:30:25;95807.13;;;19.91;50.19
37892;BME280;45797;47.466;9.486;2023-05-29T08:35:27;95806.09;;;20.09;49.54
37892;BME280;45797;47.466;9.486;2023-05-29T08:40:28;95822.38;;;20.14;49.61
37892;BME280;45797;47.466;9.486;2023-05-29T08:45:29;95825.03;;;20.30;49.35
37892;BME280;45797;47.466;9.486;2023-05-29T08:50:34;95820.44;;;20.63;48.71
37892;BME280;45797;47.466;9.486;2023-05-29T08:55:37;95823.03;;;20.88;48.42
37892;BME280;45797;47.466;9.486;2023-05-29T09:00:52;95816.25;;;21.08;47.87
37892;BME280;45797;47.466;9.486;2023-05-29T09:06:00;95812.59;;;21.40;47.05
37892;BME280;45797;47.466;9.486;2023-05-29T09:11:15;95807.56;;;21.68;46.57
37892;BME280;45797;47.466;9.486;2023-05-29T09:16:29;95799.78;;;21.81;46.19
37892;BME280;45797;47.466;9.486;2023-05-29T09:21:36;95802.47;;;22.19;45.59
37892;BME280;45797;47.466;9.486;2023-05-29T09:26:38;95792.47;;;22.50;45.46
37892;BME280;45797;47.466;9.486;2023-05-29T09:31:53;95792.19;;;22.75;44.58
37892;BME280;45797;47.466;9.486;2023-05-29T09:37:04;95790.03;;;23.00;44.11
37892;BME280;45797;47.466;9.486;2023-05-29T09:42:17;95806.00;;;23.29;43.81
37892;BME280;45797;47.466;9.486;2023-05-29T09:47:19;95794.16;;;23.38;44.11
37892;BME280;45797;47.466;9.486;2023-05-29T09:52:22;95801.09;;;23.69;42.93
37892;BME280;45797;47.466;9.486;2023-05-29T09:57:24;95803.56;;;23.92;42.87
37892;BME280;45797;47.466;9.486;2023-05-29T10:02:27;95803.97;;;24.17;42.39
37892;BME280;45797;47.466;9.486;2023-05-29T10:07:31;95797.78;;;24.44;42.02
37892;BME280;45797;47.466;9.486;2023-05-29T10:12:38;95791.34;;;24.67;41.61
37892;BME280;45797;47.466;9.486;2023-05-29T10:23:25;95782.06;;;25.04;41.09
37892;BME280;45797;47.466;9.486;2023-05-29T10:28:27;95776.31;;;25.14;40.99
37892;BME280;45797;47.466;9.486;2023-05-29T10:38:46;95765.03;;;25.51;40.20
37892;BME280;45797;47.466;9.486;2023-05-29T10:49:50;95758.69;;;26.18;39.52
37892;BME280;45797;47.466;9.486;2023-05-29T10:55:02;95757.22;;;26.36;39.10
37892;BME280;45797;47.466;9.486;2023-05-29T11:00:15;95760.88;;;26.61;38.72
37892;BME280;45797;47.466;9.486;2023-05-29T11:05:23;95753.78;;;26.87;38.29
37892;BME280;45797;47.466;9.486;2023-05-29T11:10:45;95744.00;;;26.99;38.30
37892;BME280;45797;47.466;9.486;2023-05-29T11:21:44;95748.09;;;27.46;37.49
37892;BME280;45797;47.466;9.486;2023-05-29T11:26:47;95753.63;;;27.58;37.60
37892;BME280;45797;47.466;9.486;2023-05-29T11:31:49;95744.19;;;27.80;36.89
37892;BME280;45797;47.466;9.486;2023-05-29T11:36:59;95739.44;;;28.01;36.62
37892;BME280;45797;47.466;9.486;2023-05-29T11:42:02;95748.13;;;28.03;36.39
37892;BME280;45797;47.466;9.486;2023-05-29T11:47:04;95736.94;;;28.06;36.96
37892;BME280;45797;47.466;9.486;2023-05-29T11:52:17;95741.66;;;28.35;35.90
37892;BME280;45797;47.466;9.486;2023-05-29T11:57:25;95729.13;;;28.41;35.94
37892;BME280;45797;47.466;9.486;2023-05-29T12:02:26;95734.31;;;28.61;35.69
37892;BME280;45797;47.466;9.486;2023-05-29T12:07:30;95734.72;;;29.01;35.39
37892;BME280;45797;47.466;9.486;2023-05-29T12:12:33;95733.75;;;29.25;35.15
37892;BME280;45797;47.466;9.486;2023-05-29T12:17:35;95733.31;;;29.58;34.92
37892;BME280;45797;47.466;9.486;2023-05-29T12:22:38;95738.63;;;29.77;34.30
37892;BME280;45797;47.466;9.486;2023-05-29T12:27:40;95740.06;;;29.91;34.25
37892;BME280;45797;47.466;9.486;2023-05-29T12:32:47;95740.13;;;30.14;34.50
37892;BME280;45797;47.466;9.486;2023-05-29T12:37:58;95736.09;;;30.29;33.64
37892;BME280;45797;47.466;9.486;2023-05-29T12:43:05;95731.06;;;30.32;33.90
37892;BME280;45797;47.466;9.486;2023-05-29T12:48:07;95725.06;;;30.42;33.75
37892;BME280;45797;47.466;9.486;2023-05-29T12:53:10;95722.69;;;30.57;33.50
37892;BME280;45797;47.466;9.486;2023-05-29T12:58:15;95735.16;;;30.70;33.54
37892;BME280;45797;47.466;9.486;2023-05-29T13:03:21;95736.56;;;30.73;33.28
37892;BME280;45797;47.466;9.486;2023-05-29T13:08:25;95730.22;;;30.55;33.62
37892;BME280;45797;47.466;9.486;2023-05-29T13:13:25;95731.97;;;30.61;33.38
37892;BME280;45797;47.466;9.486;2023-05-29T13:18:27;95730.47;;;30.65;32.90
37892;BME280;45797;47.466;9.486;2023-05-29T13:23:27;95730.22;;;30.55;33.23
37892;BME280;45797;47.466;9.486;2023-05-29T13:28:27;95735.75;;;30.49;33.09
37892;BME280;45797;47.466;9.486;2023-05-29T13:33:27;95733.28;;;30.70;33.08
37892;BME280;45797;47.466;9.486;2023-05-29T13:38:30;95728.31;;;30.91;32.24
37892;BME280;45797;47.466;9.486;2023-05-29T13:43:30;95722.06;;;30.90;32.75
37892;BME280;45797;47.466;9.486;2023-05-29T13:48:32;95721.63;;;30.70;32.71
37892;BME280;45797;47.466;9.486;2023-05-29T13:53:35;95722.09;;;30.67;32.81
37892;BME280;45797;47.466;9.486;2023-05-29T13:58:38;95715.47;;;30.86;32.00
37892;BME280;45797;47.466;9.486;2023-05-29T14:03:40;95717.63;;;31.13;32.22
37892;BME280;45797;47.466;9.486;2023-05-29T14:08:42;95713.69;;;31.32;31.72
37892;BME280;45797;47.466;9.486;2023-05-29T14:13:53;95717.00;;;31.51;31.62
37892;BME280;45797;47.466;9.486;2023-05-29T14:18:54;95719.69;;;31.79;31.34
37892;BME280;45797;47.466;9.486;2023-05-29T14:23:54;95717.06;;;32.01;31.23
37892;BME280;45797;47.466;9.486;2023-05-29T14:28:54;95710.66;;;32.24;31.21
37892;BME280;45797;47.466;9.486;2023-05-29T14:34:02;95714.38;;;32.35;30.81
37892;BME280;45797;47.466;9.486;2023-05-29T14:39:05;95715.75;;;32.37;30.94
37892;BME280;45797;47.466;9.486;2023-05-29T14:44:07;95709.31;;;32.60;29.73
37892;BME280;45797;47.466;9.486;2023-05-29T14:49:17;95714.25;;;32.85;30.27
37892;BME280;45797;47.466;9.486;2023-05-29T14:54:18;95710.72;;;32.85;30.42
37892;BME280;45797;47.466;9.486;2023-05-29T14:59:20;95719.47;;;32.70;30.49
37892;BME280;45797;47.466;9.486;2023-05-29T15:04:29;95712.59;;;32.84;29.89
37892;BME280;45797;47.466;9.486;2023-05-29T15:09:30;95714.50;;;33.06;30.12
37892;BME280;45797;47.466;9.486;2023-05-29T15:14:30;95716.09;;;33.83;29.22
37892;BME280;45797;47.466;9.486;2023-05-29T15:19:31;95714.44;;;34.88;27.51
37892;BME280;45797;47.466;9.486;2023-05-29T15:24:34;95714.22;;;35.93;26.51
37892;BME280;45797;47.466;9.486;2023-05-29T15:29:41;95728.53;;;36.95;25.65
37892;BME280;45797;47.466;9.486;2023-05-29T15:34:42;95719.25;;;37.56;24.96
37892;BME280;45797;47.466;9.486;2023-05-29T15:39:43;95713.13;;;38.66;23.57
37892;BME280;45797;47.466;9.486;2023-05-29T15:44:45;95724.75;;;39.73;22.61
37892;BME280;45797;47.466;9.486;2023-05-29T15:49:46;95733.28;;;40.88;22.05
37892;BME280;45797;47.466;9.486;2023-05-29T15:54:47;95726.69;;;41.66;21.05
37892;BME280;45797;47.466;9.486;2023-05-29T15:59:53;95727.34;;;42.21;20.94
37892;BME280;45797;47.466;9.486;2023-05-29T16:05:07;95724.88;;;42.42;20.92
37892;BME280;45797;47.466;9.486;2023-05-29T16:10:08;95729.38;;;42.92;20.51
37892;BME280;45797;47.466;9.486;2023-05-29T16:15:08;95719.94;;;43.24;20.21
37892;BME280;45797;47.466;9.486;2023-05-29T16:20:09;95711.28;;;43.74;19.49
37892;BME280;45797;47.466;9.486;2023-05-29T16:25:10;95723.97;;;44.09;19.14
37892;BME280;45797;47.466;9.486;2023-05-29T16:30:11;95723.97;;;44.01;19.75
37892;BME280;45797;47.466;9.486;2023-05-29T16:35:19;95727.38;;;44.15;19.34
37892;BME280;45797;47.466;9.486;2023-05-29T16:40:23;95732.22;;;44.44;19.63
37892;BME280;45797;47.466;9.486;2023-05-29T16:45:25;95726.66;;;44.70;18.96
37892;BME280;45797;47.466;9.486;2023-05-29T16:50:26;95731.13;;;44.92;18.50
37892;BME280;45797;47.466;9.486;2023-05-29T16:55:31;95724.13;;;44.13;19.80
37892;BME280;45797;47.466;9.486;2023-05-29T17:00:32;95714.06;;;43.74;19.28
37892;BME280;45797;47.466;9.486;2023-05-29T17:05:32;95717.97;;;43.81;19.35
37892;BME280;45797;47.466;9.486;2023-05-29T17:10:34;95718.78;;;43.82;19.22
37892;BME280;45797;47.466;9.486;2023-05-29T17:15:37;95725.59;;;44.28;18.63
37892;BME280;45797;47.466;9.486;2023-05-29T17:20:43;95727.53;;;44.36;18.54
37892;BME280;45797;47.466;9.486;2023-05-29T17:25:44;95729.97;;;44.11;18.45
37892;BME280;45797;47.466;9.486;2023-05-29T17:30:44;95735.28;;;43.56;18.66
37892;BME280;45797;47.466;9.486;2023-05-29T17:35:51;95734.59;;;43.33;18.94
37892;BME280;45797;47.466;9.486;2023-05-29T17:41:07;95729.81;;;43.16;19.48
37892;BME280;45797;47.466;9.486;2023-05-29T17:46:07;95728.75;;;42.64;19.59
37892;BME280;45797;47.466;9.486;2023-05-29T17:51:17;95729.28;;;41.99;20.31
37892;BME280;45797;47.466;9.486;2023-05-29T17:56:24;95734.50;;;41.09;20.35
37892;BME280;45797;47.466;9.486;2023-05-29T18:01:33;95738.03;;;40.36;21.36
37892;BME280;45797;47.466;9.486;2023-05-29T18:06:34;95743.88;;;39.59;21.44
37892;BME280;45797;47.466;9.486;2023-05-29T18:11:36;95743.34;;;38.61;22.24
37892;BME280;45797;47.466;9.486;2023-05-29T18:16:41;95744.63;;;38.06;23.12
37892;BME280;45797;47.466;9.486;2023-05-29T18:21:54;95742.59;;;37.38;23.02
37892;BME280;45797;47.466;9.486;2023-05-29T18:26:54;95742.03;;;36.30;24.01
37892;BME280;45797;47.466;9.486;2023-05-29T18:31:58;95736.06;;;34.62;25.35
37892;BME280;45797;47.466;9.486;2023-05-29T18:36:59;95740.97;;;32.93;26.83
37892;BME280;45797;47.466;9.486;2023-05-29T18:42:01;95745.34;;;31.60;27.82
37892;BME280;45797;47.466;9.486;2023-05-29T18:47:07;95739.41;;;30.42;28.94
37892;BME280;45797;47.466;9.486;2023-05-29T18:52:09;95743.88;;;29.30;29.92
37892;BME280;45797;47.466;9.486;2023-05-29T18:57:09;95751.22;;;28.31;31.12
37892;BME280;45797;47.466;9.486;2023-05-29T19:02:10;95760.81;;;27.39;31.84
37892;BME280;45797;47.466;9.486;2023-05-29T19:07:10;95765.66;;;26.53;32.75
37892;BME280;45797;47.466;9.486;2023-05-29T19:12:15;95770.91;;;25.88;33.10
37892;BME280;45797;47.466;9.486;2023-05-29T19:17:15;95775.75;;;25.31;33.75
37892;BME280;45797;47.466;9.486;2023-05-29T19:22:16;95786.03;;;24.80;34.37
37892;BME280;45797;47.466;9.486;2023-05-29T19:27:16;95790.16;;;24.41;34.27
37892;BME280;45797;47.466;9.486;2023-05-29T19:32:16;95802.25;;;24.09;34.74
37892;BME280;45797;47.466;9.486;2023-05-29T19:37:22;95799.56;;;23.81;35.07
37892;BME280;45797;47.466;9.486;2023-05-29T19:42:27;95801.63;;;23.43;35.68
37892;BME280;45797;47.466;9.486;2023-05-29T19:47:38;95804.59;;;23.12;35.34
37892;BME280;45797;47.466;9.486;2023-05-29T19:52:40;95811.91;;;22.89;36.06
37892;BME280;45797;47.466;9.486;2023-05-29T19:57:42;95822.00;;;22.64;36.44
37892;BME280;45797;47.466;9.486;2023-05-29T20:02:45;95823.75;;;22.42;36.72
37892;BME280;45797;47.466;9.486;2023-05-29T20:07:46;95837.25;;;22.26;37.24
37892;BME280;45797;47.466;9.486;2023-05-29T20:12:49;95840.75;;;22.11;37.61
37892;BME280;45797;47.466;9.486;2023-05-29T20:17:52;95837.66;;;22.00;37.14
37892;BME280;45797;47.466;9.486;2023-05-29T20:22:54;95839.06;;;21.87;37.34
37892;BME280;45797;47.466;9.486;2023-05-29T20:27:56;95841.34;;;21.76;37.36
37892;BME280;45797;47.466;9.486;2023-05-29T20:33:17;95841.63;;;21.58;37.53
37892;BME280;45797;47.466;9.486;2023-05-29T20:38:18;95848.53;;;21.52;37.81
37892;BME280;45797;47.466;9.486;2023-05-29T20:43:20;95853.25;;;21.42;38.00
37892;BME280;45797;47.466;9.486;2023-05-29T20:48:22;95858.13;;;21.30;38.08
37892;BME280;45797;47.466;9.486;2023-05-29T20:53:39;95851.88;;;21.15;38.48
37892;BME280;45797;47.466;9.486;2023-05-29T20:58:42;95861.91;;;21.05;38.64
37892;BME280;45797;47.466;9.486;2023-05-29T21:03:42;95861.63;;;20.92;38.90
37892;BME280;45797;47.466;9.486;2023-05-29T21:08:50;95859.69;;;20.77;39.12
37892;BME280;45797;47.466;9.486;2023-05-29T21:13:55;95859.56;;;20.63;39.74
37892;BME280;45797;47.466;9.486;2023-05-29T21:18:55;95864.09;;;20.46;39.79
37892;BME280;45797;47.466;9.486;2023-05-29T21:24:22;95864.94;;;20.30;40.16
37892;BME280;45797;47.466;9.486;2023-05-29T21:29:23;95862.44;;;20.20;40.40
37892;BME280;45797;47.466;9.486;2023-05-29T21:34:23;95864.59;;;20.09;40.74
37892;BME280;45797;47.466;9.486;2023-05-29T21:39:24;95861.47;;;19.97;40.49
37892;BME280;45797;47.466;9.486;2023-05-29T21:44:34;95863.13;;;19.82;40.97
37892;BME280;45797;47.466;9.486;2023-05-29T21:49:51;95853.31;;;19.66;41.59
37892;BME280;45797;47.466;9.486;2023-05-29T21:55:01;95859.94;;;19.54;41.63
37892;BME280;45797;47.466;9.486;2023-05-29T22:00:03;95859.91;;;19.46;42.29
37892;BME280;45797;47.466;9.486;2023-05-29T22:05:06;95873.19;;;19.37;42.01
37892;BME280;45797;47.466;9.486;2023-05-29T22:10:08;95866.50;;;19.25;42.44
37892;BME280;45797;47.466;9.486;2023-05-29T22:15:18;95864.31;;;19.12;42.20
37892;BME280;45797;47.466;9.486;2023-05-29T22:20:21;95862.47;;;19.05;42.56
37892;BME280;45797;47.466;9.486;2023-05-29T22:25:44;95868.72;;;18.88;43.07
37892;BME280;45797;47.466;9.486;2023-05-29T22:30:52;95863.03;;;18.82;43.03
37892;BME280;45797;47.466;9.486;2023-05-29T22:35:59;95865.16;;;18.71;43.49
37892;BME280;45797;47.466;9.486;2023-05-29T22:41:01;95860.59;;;18.63;43.71
37892;BME280;45797;47.466;9.486;2023-05-29T22:46:15;95861.69;;;18.52;43.71
37892;BME280;45797;47.466;9.486;2023-05-29T22:51:16;95856.34;;;18.44;44.05
37892;BME280;45797;47.466;9.486;2023-05-29T22:56:23;95856.47;;;18.35;44.31
37892;BME280;45797;47.466;9.486;2023-05-29T23:01:25;95854.06;;;18.23;45.00
37892;BME280;45797;47.466;9.486;2023-05-29T23:06:26;95854.84;;;18.16;44.74
37892;BME280;45797;47.466;9.486;2023-05-29T23:11:27;95846.66;;;18.09;44.71
37892;BME280;45797;47.466;9.486;2023-05-29T23:16:38;95839.66;;;18.00;44.95
37892;BME280;45797;47.466;9.486;2023-05-29T23:21:40;95847.56;;;17.92;45.46
37892;BME280;45797;47.466;9.486;2023-05-29T23:26:46;95851.44;;;17.80;45.55
37892;BME280;45797;47.466;9.486;2023-05-29T23:31:57;95845.50;;;17.68;45.89
37892;BME280;45797;47.466;9.486;2023-05-29T23:37:06;95844.44;;;17.61;45.93
37892;BME280;45797;47.466;9.486;2023-05-29T23:42:08;95844.59;;;17.59;46.26
37892;BME280;45797;47.466;9.486;2023-05-29T23:47:10;95843.25;;;17.55;45.93
37892;BME280;45797;47.466;9.486;2023-05-29T23:52:10;95844.69;;;17.50;46.74
37892;BME280;45797;47.466;9.486;2023-05-29T23:57:19;95848.09;;;17.42;46.39
